Time;durP1;ratioP1;P1;durP2;ratioP2;P2;SDS_P1;SDS_P2;PMS_P1;PMS_P2;Temp;Humidity;BMP_temperature;BMP_pressure;BME280_temperature;BME280_humidity;BME280_pressure;Samples;Min_cycle;Max_cycle;Signal;HPM_P1;HPM_P2
2022/06/30 00:01:34;;;;;;;2.97;2.05;;;21.00;57.30;;;;;;2599632;53;21049;-72
2022/06/30 00:04:01;;;;;;;3.35;2.10;;;21.00;57.30;;;;;;2350510;57;21083;-72
2022/06/30 00:06:29;;;;;;;2.65;2.20;;;21.00;57.60;;;;;;2350941;57;21606;-73
2022/06/30 00:08:56;;;;;;;3.92;1.92;;;20.90;57.50;;;;;;2350589;57;21080;-73
2022/06/30 00:11:24;;;;;;;2.45;2.08;;;20.90;57.50;;;;;;2350702;57;21105;-72
2022/06/30 00:13:51;;;;;;;2.95;2.20;;;20.90;57.80;;;;;;2350855;57;21613;-72
2022/06/30 00:16:19;;;;;;;2.45;1.98;;;20.80;57.80;;;;;;2350376;57;21029;-72
2022/06/30 00:18:47;;;;;;;2.65;2.10;;;20.80;58.00;;;;;;2349930;57;21045;-73
2022/06/30 00:21:14;;;;;;;5.50;2.58;;;20.80;58.10;;;;;;2351109;57;21068;-72
2022/06/30 00:23:42;;;;;;;3.47;2.28;;;20.70;58.30;;;;;;2350658;57;21144;-72
2022/06/30 00:26:09;;;;;;;4.75;2.30;;;20.70;58.40;;;;;;2598171;53;21056;-72
2022/06/30 00:28:37;;;;;;;4.62;2.58;;;20.70;58.50;;;;;;2350901;57;21559;-73
2022/06/30 00:31:05;;;;;;;3.47;2.50;;;20.70;58.70;;;;;;2351330;57;21044;-73
2022/06/30 00:33:32;;;;;;;4.30;2.47;;;20.60;58.70;;;;;;2350879;57;21637;-72
2022/06/30 00:36:00;;;;;;;3.97;2.00;;;20.60;58.90;;;;;;2350493;57;21108;-73
2022/06/30 00:38:27;;;;;;;4.60;2.42;;;20.60;59.00;;;;;;2350342;57;21127;-71
2022/06/30 00:40:54;;;;;;;3.85;2.40;;;20.50;59.20;;;;;;2350382;57;21027;-72
2022/06/30 00:43:22;;;;;;;3.47;2.47;;;20.50;59.40;;;;;;2351213;57;21084;-73
2022/06/30 00:45:50;;;;;;;5.18;2.58;;;20.40;59.70;;;;;;2598502;53;21061;-72
2022/06/30 00:48:19;;;;;;;4.95;2.35;;;20.40;59.70;;;;;;2598901;53;21576;-73
2022/06/30 00:50:46;;;;;;;2.25;2.05;;;20.30;60.10;;;;;;2351078;57;21535;-72
2022/06/30 00:53:17;;;;;;;3.47;2.60;;;20.30;60.20;;;;;;2351368;57;21606;-72
2022/06/30 00:55:48;;;;;;;4.10;2.60;;;20.20;60.30;;;;;;2350561;57;21052;-73
2022/06/30 00:58:18;;;;;;;2.85;2.30;;;20.20;60.60;;;;;;2351125;57;21323;-72
2022/06/30 01:00:49;;;;;;;4.28;2.30;;;20.10;60.70;;;;;;2350429;57;21081;-72
2022/06/30 01:03:18;;;;;;;3.03;2.30;;;20.10;60.80;;;;;;2350585;57;21505;-73
2022/06/30 01:05:47;;;;;;;3.70;2.50;;;20.00;60.80;;;;;;2350265;57;21116;-72
2022/06/30 01:08:16;;;;;;;4.20;2.35;;;20.00;61.10;;;;;;2351469;57;21025;-72
2022/06/30 01:13:30;;;;;;;4.07;2.45;;;20.00;61.20;;;;;;2350914;57;21061;-72
2022/06/30 01:15:57;;;;;;;3.58;2.90;;;19.90;61.00;;;;;;2350462;57;21053;-72
2022/06/30 01:18:25;;;;;;;4.37;2.30;;;19.90;61.40;;;;;;2351184;57;21111;-72
2022/06/30 01:20:53;;;;;;;2.92;2.35;;;19.90;61.80;;;;;;2350718;57;21123;-72
2022/06/30 01:23:20;;;;;;;4.32;2.60;;;19.90;61.80;;;;;;2350715;57;21108;-72
2022/06/30 01:25:47;;;;;;;2.97;2.60;;;19.80;61.90;;;;;;2350292;57;21049;-74
2022/06/30 01:28:15;;;;;;;4.50;2.83;;;19.80;62.00;;;;;;2350738;57;21235;-73
2022/06/30 01:30:42;;;;;;;4.57;2.65;;;19.80;62.00;;;;;;2350385;57;21116;-72
2022/06/30 01:33:10;;;;;;;6.28;2.67;;;19.80;61.80;;;;;;2349112;57;21345;-73
2022/06/30 01:35:38;;;;;;;6.43;2.17;;;19.80;62.10;;;;;;2350287;57;21040;-72
2022/06/30 01:38:06;;;;;;;3.47;2.62;;;19.80;62.30;;;;;;2351251;57;21120;-72
2022/06/30 01:40:35;;;;;;;3.00;2.50;;;19.70;62.40;;;;;;2351517;57;21044;-72
2022/06/30 01:43:05;;;;;;;3.35;2.72;;;19.70;62.50;;;;;;2350901;57;21040;-72
2022/06/30 01:45:33;;;;;;;5.07;2.78;;;19.70;62.70;;;;;;2350883;57;21537;-72
2022/06/30 01:48:01;;;;;;;3.03;2.70;;;19.70;62.80;;;;;;2599188;53;21095;-73
2022/06/30 01:50:31;;;;;;;4.60;2.70;;;19.70;62.90;;;;;;2350610;57;21041;-72
2022/06/30 01:52:59;;;;;;;4.03;2.75;;;19.60;62.70;;;;;;2599482;53;21060;-72
2022/06/30 01:55:27;;;;;;;6.00;3.10;;;19.60;62.50;;;;;;2350084;57;21183;-72
2022/06/30 01:57:56;;;;;;;4.55;3.30;;;19.50;62.60;;;;;;2599648;53;21037;-72
2022/06/30 02:00:26;;;;;;;4.50;3.10;;;19.40;62.70;;;;;;2350951;57;21663;-73
2022/06/30 02:02:54;;;;;;;3.20;2.87;;;19.40;63.00;;;;;;2599607;53;21658;-72
2022/06/30 02:05:22;;;;;;;5.68;3.15;;;19.30;63.10;;;;;;2350717;57;21511;-72
2022/06/30 02:10:26;;;;;;;3.55;3.00;;;19.30;63.10;;;;;;2349137;57;22479;-73
2022/06/30 02:12:53;;;;;;;3.42;3.00;;;19.20;63.20;;;;;;2317482;58;21048;-73
2022/06/30 02:15:23;;;;;;;4.97;2.83;;;19.20;64.30;;;;;;2558155;53;21664;-73
2022/06/30 02:17:53;;;;;;;6.05;3.33;;;19.20;63.70;;;;;;2317671;58;21108;-73
2022/06/30 02:20:23;;;;;;;5.20;3.12;;;19.20;63.90;;;;;;2317297;58;21603;-73
2022/06/30 02:22:52;;;;;;;4.85;3.40;;;19.20;63.90;;;;;;2318173;58;21029;-73
2022/06/30 02:25:20;;;;;;;4.40;3.00;;;19.10;64.10;;;;;;2316320;58;21131;-73
2022/06/30 02:27:47;;;;;;;3.37;2.83;;;19.10;64.40;;;;;;2317990;58;21092;-74
2022/06/30 02:30:15;;;;;;;5.55;3.37;;;19.10;64.60;;;;;;2317309;58;21068;-73
2022/06/30 02:32:43;;;;;;;4.80;3.72;;;19.00;64.70;;;;;;2317680;58;21040;-73
2022/06/30 02:35:11;;;;;;;4.47;3.12;;;19.00;65.00;;;;;;2317461;58;21040;-72
2022/06/30 02:37:39;;;;;;;4.80;3.50;;;19.00;65.30;;;;;;2316801;58;21542;-73
2022/06/30 02:40:09;;;;;;;4.00;3.37;;;18.90;65.40;;;;;;2317286;58;21595;-72
2022/06/30 02:42:37;;;;;;;4.20;3.10;;;19.00;65.60;;;;;;2317050;58;21124;-74
2022/06/30 02:45:06;;;;;;;3.12;2.75;;;19.00;65.80;;;;;;2558462;54;21052;-73
2022/06/30 02:47:36;;;;;;;5.45;3.00;;;19.00;65.80;;;;;;2558309;54;21518;-73
2022/06/30 02:50:06;;;;;;;4.55;3.50;;;18.90;65.90;;;;;;2317474;58;21640;-73
2022/06/30 02:52:34;;;;;;;5.18;3.40;;;18.90;66.00;;;;;;2316608;58;21044;-73
2022/06/30 02:55:04;;;;;;;4.78;2.95;;;18.90;66.10;;;;;;2316987;58;21060;-73
2022/06/30 02:57:31;;;;;;;4.78;3.20;;;18.90;66.10;;;;;;2316745;58;21044;-72
2022/06/30 02:59:58;;;;;;;4.00;2.80;;;18.90;66.40;;;;;;2317387;58;21598;-73
2022/06/30 03:02:26;;;;;;;5.32;3.20;;;18.90;66.40;;;;;;2317646;58;21595;-72
2022/06/30 03:04:53;;;;;;;5.32;2.97;;;18.90;66.70;;;;;;2317876;58;21119;-73
2022/06/30 03:07:21;;;;;;;3.92;3.33;;;18.90;66.60;;;;;;2557759;53;21131;-72
2022/06/30 03:09:48;;;;;;;6.07;3.62;;;18.90;66.60;;;;;;2317790;58;21194;-72
2022/06/30 03:12:16;;;;;;;7.95;3.47;;;18.90;66.70;;;;;;2317115;58;21545;-72
2022/06/30 03:14:43;;;;;;;7.87;3.00;;;19.00;66.70;;;;;;2317457;58;21052;-73
2022/06/30 03:17:11;;;;;;;3.75;3.40;;;18.90;66.70;;;;;;2316703;58;21103;-73
2022/06/30 03:19:39;;;;;;;5.97;3.65;;;18.90;66.80;;;;;;2316490;58;21124;-74
2022/06/30 03:22:06;;;;;;;4.12;3.55;;;18.90;66.80;;;;;;2315781;58;21120;-72
2022/06/30 03:24:34;;;;;;;4.07;3.53;;;19.00;67.10;;;;;;2316613;58;21052;-72
2022/06/30 03:27:01;;;;;;;3.78;3.37;;;18.90;67.00;;;;;;2316700;58;21140;-73
2022/06/30 03:29:29;;;;;;;3.92;3.45;;;18.90;67.10;;;;;;2316901;58;21060;-72
2022/06/30 03:31:56;;;;;;;6.45;3.22;;;18.90;67.20;;;;;;2316452;58;21558;-72
2022/06/30 03:34:23;;;;;;;5.10;3.60;;;19.00;67.20;;;;;;2316019;58;21048;-73
2022/06/30 03:36:51;;;;;;;5.97;3.58;;;19.00;67.10;;;;;;2316314;58;21040;-72
2022/06/30 03:39:18;;;;;;;3.72;3.40;;;19.00;67.10;;;;;;2316675;58;21547;-73
2022/06/30 03:41:46;;;;;;;5.30;3.28;;;19.00;67.10;;;;;;2556910;54;21628;-73
2022/06/30 03:44:13;;;;;;;4.00;2.83;;;19.00;67.20;;;;;;2315376;58;21112;-72
2022/06/30 03:46:41;;;;;;;3.75;3.28;;;19.00;67.20;;;;;;2316728;58;21058;-73
2022/06/30 03:49:08;;;;;;;7.37;3.00;;;19.00;67.10;;;;;;2315294;58;21554;-73
2022/06/30 03:51:36;;;;;;;4.55;3.87;;;19.10;67.20;;;;;;2556438;53;21057;-73
2022/06/30 03:54:03;;;;;;;9.27;3.78;;;19.10;67.10;;;;;;2316166;58;21047;-73
2022/06/30 03:56:31;;;;;;;3.72;3.37;;;19.00;67.00;;;;;;2314845;58;21056;-73
2022/06/30 03:58:59;;;;;;;3.50;3.15;;;19.10;67.20;;;;;;2557038;54;21515;-72
2022/06/30 04:01:26;;;;;;;6.65;3.90;;;19.10;67.20;;;;;;2556886;54;21068;-73
2022/06/30 04:03:54;;;;;;;6.53;3.60;;;19.10;67.40;;;;;;2316509;58;21053;-73
2022/06/30 04:06:23;;;;;;;4.45;3.50;;;19.20;67.50;;;;;;2314947;58;22161;-73
2022/06/30 04:08:50;;;;;;;6.45;3.62;;;19.10;67.40;;;;;;2316504;58;21135;-73
2022/06/30 04:11:18;;;;;;;5.47;3.92;;;19.20;67.50;;;;;;2316891;58;21075;-73
2022/06/30 04:13:45;;;;;;;4.53;3.60;;;19.20;67.60;;;;;;2316306;58;21040;-73
2022/06/30 04:16:13;;;;;;;5.20;3.90;;;19.20;67.70;;;;;;2496159;53;70565;-82
2022/06/30 04:18:40;;;;;;;5.25;3.62;;;19.20;68.60;;;;;;2554196;54;21135;-82
2022/06/30 04:21:08;;;;;;;4.35;3.20;;;19.10;68.00;;;;;;2553269;54;21114;-81
2022/06/30 04:23:36;;;;;;;6.80;3.80;;;19.20;68.20;;;;;;2313678;58;21104;-82
2022/06/30 04:26:03;;;;;;;8.90;3.60;;;19.20;68.20;;;;;;2313034;58;21061;-81
2022/06/30 04:28:31;;;;;;;6.62;3.87;;;19.20;68.40;;;;;;2313413;58;21053;-84
2022/06/30 04:33:44;;;;;;;5.80;3.72;;;19.20;68.40;;;;;;2313755;58;21002;-83
2022/06/30 04:36:11;;;;;;;7.95;4.07;;;19.30;68.50;;;;;;2552395;53;21569;-83
2022/06/30 04:38:39;;;;;;;4.22;3.62;;;19.30;68.70;;;;;;2553437;54;21050;-83
2022/06/30 04:41:24;;;;;;;5.40;3.55;;;19.30;69.00;;;;;;2314701;58;21058;-83
2022/06/30 04:43:52;;;;;;;6.22;3.28;;;19.30;68.90;;;;;;2314217;58;21089;-83
2022/06/30 04:46:20;;;;;;;7.05;3.72;;;19.40;68.90;;;;;;2314435;58;21078;-83
2022/06/30 04:48:48;;;;;;;5.62;3.55;;;19.40;69.40;;;;;;2314503;58;21057;-83
2022/06/30 04:51:15;;;;;;;19.45;6.55;;;19.40;69.10;;;;;;2553196;53;21093;-82
2022/06/30 04:53:43;;;;;;;13.25;5.20;;;19.40;69.10;;;;;;2313923;58;21577;-83
2022/06/30 04:56:12;;;;;;;11.65;4.40;;;19.50;69.40;;;;;;2552157;53;21134;-84
2022/06/30 04:58:40;;;;;;;4.78;3.75;;;19.50;70.40;;;;;;2314136;58;21061;-84
2022/06/30 05:01:07;;;;;;;9.55;3.95;;;19.50;69.50;;;;;;2553584;54;21073;-83
2022/06/30 05:03:36;;;;;;;8.95;4.65;;;19.60;70.30;;;;;;2313870;58;21081;-84
2022/06/30 05:06:05;;;;;;;5.45;3.03;;;19.60;69.60;;;;;;2554001;53;21054;-83
2022/06/30 05:08:36;;;;;;;5.72;3.90;;;19.60;69.70;;;;;;2313257;58;21078;-83
2022/06/30 05:11:03;;;;;;;5.30;3.78;;;19.60;69.80;;;;;;2313868;58;21109;-84
2022/06/30 05:13:31;;;;;;;5.43;3.70;;;19.70;70.60;;;;;;2312941;58;21618;-83
2022/06/30 05:15:59;;;;;;;5.12;3.65;;;19.70;69.60;;;;;;2312985;58;21138;-87
2022/06/30 05:18:27;;;;;;;10.68;3.55;;;19.80;69.60;;;;;;2314054;58;21078;-86
2022/06/30 05:20:55;;;;;;;5.35;3.20;;;19.80;69.60;;;;;;2314366;58;21071;-83
2022/06/30 05:23:22;;;;;;;6.55;3.10;;;19.80;69.50;;;;;;2551869;54;21554;-83
2022/06/30 05:28:38;;;;;;;5.25;3.45;;;19.90;69.70;;;;;;2314216;58;21041;-83
2022/06/30 05:31:07;;;;;;;3.95;3.37;;;19.90;69.50;;;;;;2314769;58;21148;-82
2022/06/30 05:33:35;;;;;;;6.40;3.47;;;20.00;69.70;;;;;;2314619;58;21082;-83
2022/06/30 05:36:02;;;;;;;6.10;3.50;;;20.00;69.50;;;;;;2554803;53;21066;-83
2022/06/30 05:38:31;;;;;;;5.12;3.80;;;20.00;69.60;;;;;;2554489;54;21097;-83
2022/06/30 05:40:58;;;;;;;4.30;3.70;;;20.00;69.70;;;;;;2314898;58;21062;-83
2022/06/30 05:43:25;;;;;;;5.32;3.55;;;20.10;69.90;;;;;;2553874;54;21122;-83
2022/06/30 05:45:55;;;;;;;5.15;3.33;;;20.10;69.80;;;;;;2553865;53;21141;-82
2022/06/30 05:48:22;;;;;;;8.20;3.62;;;20.10;69.80;;;;;;2554519;54;21062;-83
2022/06/30 05:50:56;;;;;;;5.40;3.60;;;20.20;70.10;;;;;;2554959;54;21187;-83
2022/06/30 05:53:27;;;;;;;;;;;20.20;69.90;;;;;;2318683;58;21527;-83
2022/06/30 05:56:07;;;;;;;5.43;3.28;;;20.40;69.40;;;;;;2314311;57;20079;-83
2022/06/30 05:58:39;;;;;;;4.30;3.60;;;20.40;69.50;;;;;;2554465;54;21066;-83
2022/06/30 06:01:22;;;;;;;5.72;3.50;;;20.30;69.70;;;;;;2315054;58;21054;-83
2022/06/30 06:04:00;;;;;;;4.35;3.60;;;20.40;69.90;;;;;;2554877;54;21122;-83
2022/06/30 06:06:35;;;;;;;6.30;3.65;;;20.40;69.90;;;;;;2554584;53;21097;-83
2022/06/30 06:09:09;;;;;;;5.00;3.70;;;20.50;69.80;;;;;;2554496;54;21070;-83
2022/06/30 06:11:39;;;;;;;6.05;3.35;;;20.50;70.00;;;;;;2314681;58;21046;-83
2022/06/30 06:14:19;;;;;;;5.03;3.33;;;20.50;69.80;;;;;;2314918;58;21105;-83
2022/06/30 06:16:53;;;;;;;7.03;3.87;;;20.60;70.00;;;;;;2554086;53;21074;-83
2022/06/30 06:19:38;;;;;;;6.47;3.75;;;20.70;69.90;;;;;;2554785;54;21030;-83
2022/06/30 06:22:12;;;;;;;3.85;3.37;;;20.70;69.80;;;;;;2314724;58;21165;-83
2022/06/30 06:25:02;;;;;;;5.30;4.00;;;20.80;69.70;;;;;;2314669;58;21636;-83
2022/06/30 06:27:35;;;;;;;7.18;3.20;;;20.80;69.40;;;;;;2281953;58;21046;-83
2022/06/30 06:30:15;;;;;;;;;;;20.90;69.20;;;;;;2558578;54;21114;-83
2022/06/30 06:32:48;;;;;;;4.72;3.40;;;21.00;68.70;;;;;;2314970;58;20075;-83
2022/06/30 06:35:31;;;;;;;6.10;3.85;;;21.00;68.60;;;;;;2554411;53;21070;-82
2022/06/30 06:38:03;;;;;;;4.97;3.28;;;21.00;69.00;;;;;;2555038;54;21057;-83
2022/06/30 06:40:48;;;;;;;10.00;3.60;;;21.10;69.10;;;;;;2555038;54;21058;-83
2022/06/30 06:43:23;;;;;;;7.40;3.35;;;21.10;69.00;;;;;;2554250;54;21073;-83
2022/06/30 06:45:50;;;;;;;6.30;3.83;;;21.20;68.80;;;;;;2552804;53;21093;-84
2022/06/30 06:48:18;;;;;;;3.72;3.10;;;21.20;68.70;;;;;;2553684;54;21144;-84
2022/06/30 06:50:47;;;;;;;5.28;3.30;;;21.20;68.60;;;;;;2314027;58;21479;-84
2022/06/30 06:53:14;;;;;;;3.95;3.10;;;21.20;68.40;;;;;;2550988;54;21713;-84
2022/06/30 06:55:42;;;;;;;5.43;3.28;;;21.30;68.50;;;;;;2552924;53;21238;-85
2022/06/30 06:58:10;;;;;;;4.10;3.03;;;21.30;67.80;;;;;;2553424;54;21526;-85
2022/06/30 07:00:38;;;;;;;6.97;3.37;;;21.40;67.90;;;;;;2553735;54;21069;-85
2022/06/30 07:03:05;;;;;;;5.28;3.10;;;21.40;67.90;;;;;;2554319;54;21192;-85
2022/06/30 07:05:32;;;;;;;6.37;3.17;;;21.50;68.00;;;;;;2313044;58;21129;-84
2022/06/30 07:08:01;;;;;;;5.43;3.45;;;21.50;68.00;;;;;;2554037;54;21089;-83
2022/06/30 07:10:29;;;;;;;4.10;3.20;;;21.60;68.20;;;;;;2554842;54;21717;-84
2022/06/30 07:12:57;;;;;;;5.57;3.42;;;21.60;68.10;;;;;;2315327;58;21058;-84
2022/06/30 07:15:24;;;;;;;5.82;3.25;;;21.70;68.00;;;;;;2554102;53;21069;-84
2022/06/30 07:17:52;;;;;;;3.50;3.00;;;21.70;67.80;;;;;;2313838;58;21152;-80
2022/06/30 07:20:19;;;;;;;6.82;3.20;;;21.80;67.80;;;;;;2313894;58;21109;-84
2022/06/30 07:22:47;;;;;;;5.45;3.50;;;21.80;67.80;;;;;;2554544;54;21098;-85
2022/06/30 07:25:14;;;;;;;6.45;2.70;;;21.90;67.70;;;;;;2554107;53;21061;-84
2022/06/30 07:27:42;;;;;;;3.25;2.50;;;21.90;67.40;;;;;;2554363;54;21145;-85
2022/06/30 07:30:11;;;;;;;4.18;3.00;;;22.00;67.10;;;;;;2554398;54;21062;-85
2022/06/30 07:32:38;;;;;;;4.15;3.12;;;22.00;66.70;;;;;;2553451;54;21535;-85
2022/06/30 07:35:08;;;;;;;6.72;3.33;;;22.10;66.80;;;;;;2553344;53;21109;-85
2022/06/30 07:37:38;;;;;;;5.68;2.97;;;22.20;66.20;;;;;;2314395;58;21629;-85
2022/06/30 07:40:08;;;;;;;4.47;3.05;;;22.20;66.20;;;;;;2553100;54;21366;-85
2022/06/30 07:42:36;;;;;;;3.85;2.83;;;22.20;65.80;;;;;;2313575;58;21050;-84
2022/06/30 07:45:05;;;;;;;4.50;3.15;;;22.30;65.20;;;;;;2552745;53;21190;-85
2022/06/30 07:47:33;;;;;;;7.82;3.60;;;22.40;65.30;;;;;;2552930;54;21141;-85
2022/06/30 07:50:02;;;;;;;4.95;3.08;;;22.40;65.50;;;;;;2313020;58;21050;-85
2022/06/30 07:52:29;;;;;;;6.60;2.80;;;22.50;64.90;;;;;;2313634;58;21717;-84
2022/06/30 07:54:58;;;;;;;4.22;2.60;;;22.50;64.30;;;;;;2313750;58;21089;-84
2022/06/30 07:57:27;;;;;;;5.55;3.10;;;22.50;64.70;;;;;;2553223;54;21110;-85
2022/06/30 07:59:54;;;;;;;3.67;2.92;;;22.60;64.60;;;;;;2553392;54;21058;-85
2022/06/30 08:02:22;;;;;;;3.47;2.75;;;22.60;64.50;;;;;;2553180;54;21082;-84
2022/06/30 08:04:50;;;;;;;3.80;2.85;;;22.70;64.20;;;;;;2314527;58;21049;-84
2022/06/30 08:07:17;;;;;;;5.82;2.92;;;22.80;64.00;;;;;;2554719;54;21181;-84
2022/06/30 08:09:45;;;;;;;5.25;3.40;;;22.80;64.20;;;;;;2554748;54;21038;-85
2022/06/30 08:12:13;;;;;;;3.92;2.95;;;22.90;63.90;;;;;;2554385;54;21081;-85
2022/06/30 08:14:40;;;;;;;3.70;2.67;;;22.90;63.20;;;;;;2313070;57;21086;-84
2022/06/30 08:17:08;;;;;;;4.62;2.92;;;23.00;62.60;;;;;;2314348;58;21172;-84
2022/06/30 08:19:35;;;;;;;5.45;2.95;;;23.00;62.60;;;;;;2553252;54;21161;-84
2022/06/30 08:22:03;;;;;;;3.83;3.00;;;23.10;62.30;;;;;;2553695;54;21069;-84
2022/06/30 08:24:30;;;;;;;3.10;2.50;;;23.10;62.30;;;;;;2554284;53;21050;-84
2022/06/30 08:27:02;;;;;;;3.90;2.42;;;23.20;61.50;;;;;;2313853;58;21373;-84
2022/06/30 08:29:32;;;;;;;4.78;2.85;;;23.20;61.00;;;;;;2314811;58;21137;-84
2022/06/30 08:32:00;;;;;;;4.85;2.70;;;23.30;61.10;;;;;;2553764;54;21078;-84
2022/06/30 08:34:27;;;;;;;5.65;2.85;;;23.30;61.00;;;;;;2554271;53;21110;-84
2022/06/30 08:36:55;;;;;;;3.80;2.55;;;23.30;60.90;;;;;;2553600;54;21149;-84
2022/06/30 08:42:10;;;;;;;3.03;2.70;;;23.40;61.20;;;;;;2314157;58;21006;-84
2022/06/30 08:44:41;;;;;;;4.25;2.87;;;23.50;60.60;;;;;;2554051;53;21061;-84
2022/06/30 08:47:09;;;;;;;3.25;2.60;;;23.50;59.90;;;;;;2314023;58;21075;-84
2022/06/30 08:49:36;;;;;;;2.70;2.25;;;23.50;59.90;;;;;;2554516;54;21113;-84
2022/06/30 08:52:06;;;;;;;4.93;2.80;;;23.60;59.60;;;;;;2313724;58;21153;-84
2022/06/30 08:54:38;;;;;;;6.35;2.67;;;23.60;59.50;;;;;;2554218;53;21660;-84
2022/06/30 08:57:08;;;;;;;3.42;2.40;;;23.60;59.50;;;;;;2552872;54;21109;-84
2022/06/30 08:59:37;;;;;;;4.53;2.40;;;23.70;59.60;;;;;;2553917;54;21573;-85
2022/06/30 09:02:06;;;;;;;4.25;2.70;;;23.70;59.50;;;;;;2314242;58;21054;-84
2022/06/30 09:04:33;;;;;;;4.75;2.92;;;23.80;59.70;;;;;;2554205;53;21121;-84
2022/06/30 09:07:04;;;;;;;4.28;2.33;;;23.80;59.00;;;;;;2553425;54;21114;-84
2022/06/30 09:09:31;;;;;;;3.97;2.60;;;23.90;58.90;;;;;;2553878;54;21046;-83
2022/06/30 09:11:59;;;;;;;3.35;2.78;;;23.90;58.50;;;;;;2553469;54;21162;-83
2022/06/30 09:14:35;;;;;;;4.10;2.50;;;23.90;58.60;;;;;;2553417;53;21129;-84
2022/06/30 09:17:04;;;;;;;5.78;2.42;;;24.00;58.20;;;;;;2551347;53;21141;-83
2022/06/30 09:19:33;;;;;;;4.45;2.80;;;24.00;57.50;;;;;;2312521;58;21617;-84
2022/06/30 09:22:06;;;;;;;3.90;2.80;;;24.00;57.60;;;;;;2553736;54;21083;-83
2022/06/30 09:24:33;;;;;;;4.80;2.75;;;24.10;57.90;;;;;;2554768;53;21562;-83
2022/06/30 09:27:12;;;;;;;4.97;2.50;;;24.20;58.20;;;;;;2553813;54;21070;-83
2022/06/30 09:29:55;;;;;;;5.50;2.90;;;24.20;57.80;;;;;;2314324;58;21129;-83
2022/06/30 09:32:25;;;;;;;5.13;2.83;;;24.30;57.50;;;;;;2554625;54;21609;-86
2022/06/30 09:34:53;;;;;;;6.10;2.55;;;24.30;57.10;;;;;;2553040;53;21113;-85
2022/06/30 09:37:23;;;;;;;4.60;2.97;;;24.30;56.10;;;;;;2314515;58;21681;-85
2022/06/30 09:39:53;;;;;;;4.62;2.30;;;24.40;56.70;;;;;;2314103;58;21038;-85
2022/06/30 09:42:44;;;;;;;4.65;2.75;;;24.40;56.20;;;;;;2554132;54;21130;-85
2022/06/30 09:45:13;;;;;;;5.85;2.55;;;24.50;55.80;;;;;;2314586;58;21050;-85
2022/06/30 09:50:27;;;;;;;4.15;2.60;;;24.50;56.10;;;;;;2331640;57;22092;-72
2022/06/30 09:53:10;;;;;;;5.37;2.80;;;24.60;56.10;;;;;;2343426;57;21097;-71
2022/06/30 09:55:40;;;;;;;5.22;3.10;;;24.60;55.90;;;;;;2341508;57;21041;-72
2022/06/30 09:58:09;;;;;;;6.18;2.95;;;24.70;56.00;;;;;;2344306;57;21045;-71
2022/06/30 10:00:50;;;;;;;4.32;2.45;;;24.70;55.70;;;;;;2345643;57;21018;-73
2022/06/30 10:03:18;;;;;;;5.07;2.70;;;24.80;55.80;;;;;;2345003;57;21030;-72
2022/06/30 10:08:26;;;;;;;4.37;2.83;;;24.90;55.80;;;;;;2354358;57;22066;-73
2022/06/30 10:10:54;;;;;;;5.18;3.00;;;24.90;55.60;;;;;;2369880;56;21604;-73
2022/06/30 10:13:22;;;;;;;3.87;3.00;;;25.00;55.70;;;;;;2371686;56;21094;-72
2022/06/30 10:15:54;;;;;;;3.55;2.47;;;25.00;55.70;;;;;;2371587;56;21067;-72
2022/06/30 10:18:24;;;;;;;5.37;3.00;;;25.10;54.80;;;;;;2372767;56;21325;-72
2022/06/30 10:20:52;;;;;;;3.97;2.60;;;25.10;54.50;;;;;;2371993;56;22704;-72
2022/06/30 10:23:20;;;;;;;3.95;2.72;;;25.20;54.50;;;;;;2373286;56;21681;-72
2022/06/30 10:25:48;;;;;;;5.07;3.00;;;25.20;54.00;;;;;;2372425;56;21589;-72
2022/06/30 10:28:19;;;;;;;4.50;3.40;;;25.20;54.30;;;;;;2373136;56;21083;-72
2022/06/30 10:30:52;;;;;;;5.57;3.40;;;25.20;54.90;;;;;;2626025;52;21062;-72
2022/06/30 10:34:26;;;;;;;;;;;25.30;55.00;;;;;;2376815;56;21137;-71
2022/06/30 10:37:04;;;;;;;4.85;2.72;;;25.40;54.40;;;;;;2371540;56;20136;-73
2022/06/30 10:39:42;;;;;;;2.55;2.30;;;25.50;54.40;;;;;;2373074;56;21126;-72
2022/06/30 10:42:10;;;;;;;2.70;2.50;;;25.50;54.20;;;;;;2626255;52;21047;-72
2022/06/30 10:44:38;;;;;;;4.43;3.90;;;25.50;54.50;;;;;;2627724;52;21321;-71
2022/06/30 10:47:10;;;;;;;8.27;3.03;;;25.60;54.00;;;;;;2373792;56;21098;-72
2022/06/30 10:49:59;;;;;;;6.55;3.10;;;25.60;53.60;;;;;;2373913;56;21150;-72
2022/06/30 10:52:30;;;;;;;5.93;3.28;;;25.70;53.00;;;;;;2374556;56;21043;-71
2022/06/30 10:55:09;;;;;;;3.65;3.10;;;25.70;53.10;;;;;;2628871;52;21102;-72
2022/06/30 10:58:03;;;;;;;5.37;2.92;;;25.80;52.80;;;;;;2375136;56;21114;-71
2022/06/30 11:04:04;;;;;;;5.03;3.05;;;25.90;53.40;;;;;;2355846;57;22144;-71
2022/06/30 11:06:56;;;;;;;5.85;2.70;;;26.00;53.10;;;;;;2345825;57;21100;-72
2022/06/30 11:10:10;;;;;;;5.15;3.00;;;26.00;52.50;;;;;;2354649;56;21604;-73
2022/06/30 11:12:57;;;;;;;3.60;2.60;;;26.10;52.40;;;;;;2375323;56;21054;-72
2022/06/30 11:15:50;;;;;;;4.70;2.80;;;26.30;52.90;;;;;;2374977;56;22025;-71
2022/06/30 11:18:20;;;;;;;2.60;2.40;;;26.50;53.00;;;;;;2375152;56;21115;-71
2022/06/30 11:20:49;;;;;;;5.45;2.97;;;26.60;52.20;;;;;;2373408;56;21091;-72
2022/06/30 11:23:20;;;;;;;4.10;3.05;;;26.60;51.90;;;;;;2374441;56;21577;-72
2022/06/30 11:28:38;;;;;;;4.12;2.83;;;26.80;52.00;;;;;;2375299;56;21003;-72
2022/06/30 11:31:21;;;;;;;3.15;2.35;;;27.00;51.80;;;;;;2375095;56;21134;-72
2022/06/30 11:33:54;;;;;;;3.47;2.40;;;27.10;51.00;;;;;;2375424;56;21545;-72
2022/06/30 11:36:21;;;;;;;6.25;2.47;;;27.20;50.90;;;;;;2374480;56;21079;-72
2022/06/30 11:38:54;;;;;;;3.90;2.70;;;27.30;50.60;;;;;;2628335;52;21050;-72
2022/06/30 11:44:12;;;;;;;5.93;2.90;;;27.50;49.90;;;;;;2373515;56;21022;-72
2022/06/30 11:46:54;;;;;;;5.90;2.40;;;27.70;50.20;;;;;;2372603;56;21533;-72
2022/06/30 11:49:24;;;;;;;4.75;2.83;;;27.80;49.30;;;;;;2373576;56;21528;-72
2022/06/30 11:51:52;;;;;;;3.12;2.70;;;28.00;49.70;;;;;;2374152;56;21090;-72
2022/06/30 11:54:25;;;;;;;3.78;2.47;;;28.20;50.10;;;;;;2370796;56;21073;-72
2022/06/30 11:56:56;;;;;;;4.03;2.20;;;28.30;49.10;;;;;;2369915;56;21055;-71
2022/06/30 11:59:24;;;;;;;4.07;2.60;;;28.40;48.40;;;;;;2370704;56;21526;-72
2022/06/30 12:02:09;;;;;;;3.28;2.53;;;28.50;48.40;;;;;;2369815;56;21612;-73
2022/06/30 12:04:41;;;;;;;4.75;2.67;;;28.70;48.00;;;;;;2370897;56;21125;-73
2022/06/30 12:07:10;;;;;;;5.62;2.58;;;28.90;48.50;;;;;;2373115;56;21054;-73
2022/06/30 12:09:38;;;;;;;5.05;2.30;;;29.00;47.20;;;;;;2373109;56;21067;-72
2022/06/30 12:12:08;;;;;;;3.15;2.03;;;29.00;47.00;;;;;;2373063;56;21035;-71
2022/06/30 12:14:38;;;;;;;4.62;2.30;;;29.10;46.90;;;;;;2371645;56;21181;-71
2022/06/30 12:17:08;;;;;;;4.78;2.65;;;29.10;46.70;;;;;;2370563;56;21094;-72
2022/06/30 12:19:36;;;;;;;3.45;2.03;;;29.20;47.10;;;;;;2371088;56;21102;-71
2022/06/30 12:22:06;;;;;;;2.33;2.00;;;29.40;47.00;;;;;;2371395;56;21716;-71
2022/06/30 12:24:36;;;;;;;2.92;2.17;;;29.50;46.40;;;;;;2371452;56;21129;-71
2022/06/30 12:27:05;;;;;;;3.50;2.53;;;29.70;46.20;;;;;;2370558;56;21035;-72
2022/06/30 12:29:32;;;;;;;3.37;2.40;;;29.80;46.60;;;;;;2371124;56;21215;-71
2022/06/30 12:32:02;;;;;;;2.40;2.20;;;29.80;45.70;;;;;;2370436;56;21618;-72
2022/06/30 12:34:30;;;;;;;4.78;2.62;;;29.80;45.80;;;;;;2370656;56;21118;-72
2022/06/30 12:37:00;;;;;;;5.07;2.58;;;29.90;45.90;;;;;;2371536;56;21047;-71
2022/06/30 12:39:28;;;;;;;5.47;2.25;;;30.00;45.30;;;;;;2371273;56;21043;-71
2022/06/30 12:42:04;;;;;;;3.20;2.42;;;30.10;45.30;;;;;;2371889;56;21058;-72
2022/06/30 12:44:35;;;;;;;4.20;2.28;;;30.10;44.80;;;;;;2370335;56;21039;-72
2022/06/30 12:47:08;;;;;;;2.83;2.47;;;30.20;44.20;;;;;;2372752;56;21023;-71
2022/06/30 12:49:36;;;;;;;2.72;2.40;;;30.20;44.60;;;;;;2372765;56;21550;-72
2022/06/30 12:52:15;;;;;;;4.12;2.58;;;30.30;45.00;;;;;;2372480;56;21055;-72
2022/06/30 12:54:52;;;;;;;3.25;2.60;;;30.30;44.30;;;;;;2371153;56;21550;-71
2022/06/30 12:57:20;;;;;;;3.72;2.40;;;30.40;44.60;;;;;;2623813;52;21059;-71
2022/06/30 12:59:52;;;;;;;2.97;2.28;;;30.50;44.50;;;;;;2371231;56;21260;-71
2022/06/30 13:02:21;;;;;;;3.33;2.37;;;30.60;44.50;;;;;;2624594;52;21052;-72
2022/06/30 13:04:50;;;;;;;2.67;2.30;;;30.80;44.80;;;;;;2371433;56;21668;-72
2022/06/30 13:07:18;;;;;;;3.42;2.45;;;30.80;44.20;;;;;;2370773;56;21040;-72
2022/06/30 13:09:47;;;;;;;4.70;2.37;;;30.80;43.60;;;;;;2371000;56;21102;-72
2022/06/30 13:12:15;;;;;;;3.67;2.58;;;30.80;43.20;;;;;;2371787;56;21062;-72
2022/06/30 13:14:43;;;;;;;4.07;2.22;;;30.80;43.20;;;;;;2371282;56;21067;-71
2022/06/30 13:17:11;;;;;;;2.92;2.20;;;30.80;43.40;;;;;;2371460;56;21094;-72
2022/06/30 13:19:40;;;;;;;3.22;2.40;;;30.80;43.50;;;;;;2371372;56;21126;-71
2022/06/30 13:22:08;;;;;;;3.35;2.30;;;30.80;43.30;;;;;;2371073;56;21137;-71
2022/06/30 13:24:36;;;;;;;3.67;2.40;;;30.80;43.00;;;;;;2624305;52;21142;-72
2022/06/30 13:27:04;;;;;;;4.70;2.67;;;30.70;42.80;;;;;;2370889;56;21087;-72
2022/06/30 13:29:34;;;;;;;2.87;2.37;;;30.70;43.30;;;;;;2369382;56;21106;-72
2022/06/30 13:32:02;;;;;;;4.10;2.67;;;30.60;43.40;;;;;;2372034;56;21513;-72